sensor_id;sensor_type;location;lat;lon;timestamp;P1;durP1;ratioP1;P2;durP2;ratioP2
80229;SDS011;69540;42.136;24.742;2023-10-13T00:00:35;4.30;;;2.75;;
80229;SDS011;69540;42.136;24.742;2023-10-13T00:03:02;3.40;;;2.45;;
80229;SDS011;69540;42.136;24.742;2023-10-13T00:05:31;2.95;;;2.58;;
80229;SDS011;69540;42.136;24.742;2023-10-13T00:07:58;4.20;;;2.70;;
80229;SDS011;69540;42.136;24.742;2023-10-13T00:10:28;3.00;;;2.75;;
80229;SDS011;69540;42.136;24.742;2023-10-13T00:12:54;2.75;;;2.55;;
80229;SDS011;69540;42.136;24.742;2023-10-13T00:15:30;2.88;;;2.58;;
80229;SDS011;69540;42.136;24.742;2023-10-13T00:18:03;3.33;;;2.78;;
80229;SDS011;69540;42.136;24.742;2023-10-13T00:20:37;2.67;;;2.47;;
80229;SDS011;69540;42.136;24.742;2023-10-13T00:23:13;3.97;;;2.80;;
80229;SDS011;69540;42.136;24.742;2023-10-13T00:25:39;3.47;;;2.78;;
80229;SDS011;69540;42.136;24.742;2023-10-13T00:28:08;2.83;;;2.50;;
80229;SDS011;69540;42.136;24.742;2023-10-13T00:30:34;3.25;;;2.50;;
80229;SDS011;69540;42.136;24.742;2023-10-13T00:33:00;2.95;;;2.42;;
80229;SDS011;69540;42.136;24.742;2023-10-13T00:35:26;3.47;;;2.55;;
80229;SDS011;69540;42.136;24.742;2023-10-13T00:37:57;2.83;;;2.63;;
80229;SDS011;69540;42.136;24.742;2023-10-13T00:40:43;3.35;;;2.60;;
80229;SDS011;69540;42.136;24.742;2023-10-13T00:43:16;2.90;;;2.70;;
80229;SDS011;69540;42.136;24.742;2023-10-13T00:48:21;2.95;;;2.53;;
80229;SDS011;69540;42.136;24.742;2023-10-13T00:50:53;3.97;;;2.70;;
80229;SDS011;69540;42.136;24.742;2023-10-13T00:53:21;2.92;;;2.63;;
80229;SDS011;69540;42.136;24.742;2023-10-13T00:55:50;2.78;;;2.45;;
80229;SDS011;69540;42.136;24.742;2023-10-13T00:58:16;2.80;;;2.60;;
80229;SDS011;69540;42.136;24.742;2023-10-13T01:00:47;2.83;;;2.35;;
80229;SDS011;69540;42.136;24.742;2023-10-13T01:03:21;3.15;;;2.85;;
80229;SDS011;69540;42.136;24.742;2023-10-13T01:05:51;2.92;;;2.63;;
80229;SDS011;69540;42.136;24.742;2023-10-13T01:08:33;2.80;;;2.60;;
80229;SDS011;69540;42.136;24.742;2023-10-13T01:11:03;2.85;;;2.55;;
80229;SDS011;69540;42.136;24.742;2023-10-13T01:13:32;3.10;;;2.75;;
80229;SDS011;69540;42.136;24.742;2023-10-13T01:16:01;2.67;;;2.47;;
80229;SDS011;69540;42.136;24.742;2023-10-13T01:18:27;2.83;;;2.63;;
80229;SDS011;69540;42.136;24.742;2023-10-13T01:20:55;3.13;;;2.58;;
80229;SDS011;69540;42.136;24.742;2023-10-13T01:23:24;2.95;;;2.67;;
80229;SDS011;69540;42.136;24.742;2023-10-13T01:25:54;2.78;;;2.50;;
80229;SDS011;69540;42.136;24.742;2023-10-13T01:28:21;2.70;;;2.50;;
80229;SDS011;69540;42.136;24.742;2023-10-13T01:30:48;2.90;;;2.65;;
80229;SDS011;69540;42.136;24.742;2023-10-13T01:33:17;2.92;;;2.50;;
80229;SDS011;69540;42.136;24.742;2023-10-13T01:36:02;3.25;;;2.55;;
80229;SDS011;69540;42.136;24.742;2023-10-13T01:38:32;3.15;;;2.60;;
80229;SDS011;69540;42.136;24.742;2023-10-13T01:40:58;3.10;;;2.80;;
80229;SDS011;69540;42.136;24.742;2023-10-13T01:43:24;2.60;;;2.40;;
80229;SDS011;69540;42.136;24.742;2023-10-13T01:45:50;2.70;;;2.50;;
80229;SDS011;69540;42.136;24.742;2023-10-13T01:48:16;2.65;;;2.45;;
80229;SDS011;69540;42.136;24.742;2023-10-13T01:50:46;3.30;;;3.00;;
80229;SDS011;69540;42.136;24.742;2023-10-13T01:53:20;2.83;;;2.60;;
80229;SDS011;69540;42.136;24.742;2023-10-13T01:55:47;2.80;;;2.60;;
80229;SDS011;69540;42.136;24.742;2023-10-13T01:58:15;2.60;;;2.40;;
80229;SDS011;69540;42.136;24.742;2023-10-13T02:00:41;4.03;;;2.67;;
80229;SDS011;69540;42.136;24.742;2023-10-13T02:03:09;3.05;;;2.65;;
80229;SDS011;69540;42.136;24.742;2023-10-13T02:05:44;2.80;;;2.60;;
80229;SDS011;69540;42.136;24.742;2023-10-13T02:08:17;2.67;;;2.47;;
80229;SDS011;69540;42.136;24.742;2023-10-13T02:10:51;2.75;;;2.50;;
80229;SDS011;69540;42.136;24.742;2023-10-13T02:13:21;2.60;;;2.40;;
80229;SDS011;69540;42.136;24.742;2023-10-13T02:15:48;2.60;;;2.40;;
80229;SDS011;69540;42.136;24.742;2023-10-13T02:18:17;3.00;;;2.80;;
80229;SDS011;69540;42.136;24.742;2023-10-13T02:20:51;2.63;;;2.42;;
80229;SDS011;69540;42.136;24.742;2023-10-13T02:23:21;3.95;;;2.80;;
80229;SDS011;69540;42.136;24.742;2023-10-13T02:25:54;2.70;;;2.50;;
80229;SDS011;69540;42.136;24.742;2023-10-13T02:28:28;2.92;;;2.65;;
80229;SDS011;69540;42.136;24.742;2023-10-13T02:33:28;2.80;;;2.60;;
80229;SDS011;69540;42.136;24.742;2023-10-13T02:35:58;2.58;;;2.38;;
80229;SDS011;69540;42.136;24.742;2023-10-13T02:38:24;2.97;;;2.67;;
80229;SDS011;69540;42.136;24.742;2023-10-13T02:41:11;2.65;;;2.38;;
80229;SDS011;69540;42.136;24.742;2023-10-13T02:43:44;2.45;;;2.25;;
80229;SDS011;69540;42.136;24.742;2023-10-13T02:46:09;3.05;;;2.50;;
80229;SDS011;69540;42.136;24.742;2023-10-13T02:48:35;3.53;;;2.70;;
80229;SDS011;69540;42.136;24.742;2023-10-13T02:51:05;2.60;;;2.40;;
80229;SDS011;69540;42.136;24.742;2023-10-13T02:53:49;2.58;;;2.38;;
80229;SDS011;69540;42.136;24.742;2023-10-13T02:56:15;2.90;;;2.60;;
80229;SDS011;69540;42.136;24.742;2023-10-13T02:58:48;2.60;;;2.40;;
80229;SDS011;69540;42.136;24.742;2023-10-13T03:01:18;3.38;;;2.80;;
80229;SDS011;69540;42.136;24.742;2023-10-13T03:03:49;4.10;;;2.63;;
80229;SDS011;69540;42.136;24.742;2023-10-13T03:06:25;3.45;;;2.67;;
80229;SDS011;69540;42.136;24.742;2023-10-13T03:09:01;2.50;;;2.30;;
80229;SDS011;69540;42.136;24.742;2023-10-13T03:11:41;3.05;;;2.80;;
80229;SDS011;69540;42.136;24.742;2023-10-13T03:14:09;3.10;;;2.90;;
80229;SDS011;69540;42.136;24.742;2023-10-13T03:16:48;3.10;;;2.80;;
80229;SDS011;69540;42.136;24.742;2023-10-13T03:19:27;3.10;;;2.80;;
80229;SDS011;69540;42.136;24.742;2023-10-13T03:22:01;3.17;;;2.65;;
80229;SDS011;69540;42.136;24.742;2023-10-13T03:24:41;2.75;;;2.55;;
80229;SDS011;69540;42.136;24.742;2023-10-13T03:29:43;2.58;;;2.38;;
80229;SDS011;69540;42.136;24.742;2023-10-13T03:32:10;2.70;;;2.50;;
80229;SDS011;69540;42.136;24.742;2023-10-13T03:34:38;2.67;;;2.47;;
80229;SDS011;69540;42.136;24.742;2023-10-13T03:37:18;2.67;;;2.47;;
80229;SDS011;69540;42.136;24.742;2023-10-13T03:40:14;2.78;;;2.58;;
80229;SDS011;69540;42.136;24.742;2023-10-13T03:42:52;2.53;;;2.33;;
80229;SDS011;69540;42.136;24.742;2023-10-13T03:45:25;2.85;;;2.50;;
80229;SDS011;69540;42.136;24.742;2023-10-13T03:47:56;3.08;;;2.80;;
80229;SDS011;69540;42.136;24.742;2023-10-13T03:50:22;6.07;;;3.00;;
80229;SDS011;69540;42.136;24.742;2023-10-13T03:52:57;4.80;;;3.35;;
80229;SDS011;69540;42.136;24.742;2023-10-13T03:55:24;4.13;;;3.05;;
80229;SDS011;69540;42.136;24.742;2023-10-13T03:57:55;4.53;;;3.45;;
80229;SDS011;69540;42.136;24.742;2023-10-13T04:00:22;5.38;;;3.22;;
80229;SDS011;69540;42.136;24.742;2023-10-13T04:02:52;4.05;;;3.05;;
80229;SDS011;69540;42.136;24.742;2023-10-13T04:05:27;4.43;;;2.95;;
80229;SDS011;69540;42.136;24.742;2023-10-13T04:08:26;3.55;;;2.97;;
80229;SDS011;69540;42.136;24.742;2023-10-13T04:10:52;4.03;;;3.03;;
80229;SDS011;69540;42.136;24.742;2023-10-13T04:13:19;5.53;;;3.45;;
80229;SDS011;69540;42.136;24.742;2023-10-13T04:16:04;4.75;;;3.05;;
80229;SDS011;69540;42.136;24.742;2023-10-13T04:18:40;4.75;;;3.13;;
80229;SDS011;69540;42.136;24.742;2023-10-13T04:21:25;4.93;;;3.00;;
80229;SDS011;69540;42.136;24.742;2023-10-13T04:24:10;5.28;;;3.50;;
80229;SDS011;69540;42.136;24.742;2023-10-13T04:26:56;3.42;;;3.05;;
80229;SDS011;69540;42.136;24.742;2023-10-13T04:29:37;3.38;;;3.03;;
80229;SDS011;69540;42.136;24.742;2023-10-13T04:32:12;5.65;;;3.15;;
80229;SDS011;69540;42.136;24.742;2023-10-13T04:34:39;7.93;;;3.17;;
80229;SDS011;69540;42.136;24.742;2023-10-13T04:37:10;5.53;;;3.25;;
80229;SDS011;69540;42.136;24.742;2023-10-13T04:39:57;5.85;;;3.47;;
80229;SDS011;69540;42.136;24.742;2023-10-13T04:42:34;4.72;;;3.65;;
80229;SDS011;69540;42.136;24.742;2023-10-13T04:45:18;6.05;;;3.20;;
80229;SDS011;69540;42.136;24.742;2023-10-13T04:48:11;11.85;;;3.78;;
80229;SDS011;69540;42.136;24.742;2023-10-13T04:50:44;8.32;;;3.50;;
80229;SDS011;69540;42.136;24.742;2023-10-13T04:53:14;7.13;;;3.63;;
80229;SDS011;69540;42.136;24.742;2023-10-13T04:56:01;6.15;;;3.80;;
80229;SDS011;69540;42.136;24.742;2023-10-13T04:58:26;5.15;;;3.50;;
80229;SDS011;69540;42.136;24.742;2023-10-13T05:01:12;7.97;;;3.50;;
80229;SDS011;69540;42.136;24.742;2023-10-13T05:03:50;6.45;;;3.90;;
80229;SDS011;69540;42.136;24.742;2023-10-13T05:06:27;6.20;;;4.00;;
80229;SDS011;69540;42.136;24.742;2023-10-13T05:09:08;6.70;;;4.13;;
80229;SDS011;69540;42.136;24.742;2023-10-13T05:11:57;8.25;;;3.90;;
80229;SDS011;69540;42.136;24.742;2023-10-13T05:14:42;6.40;;;3.88;;
80229;SDS011;69540;42.136;24.742;2023-10-13T05:17:26;5.90;;;3.70;;
80229;SDS011;69540;42.136;24.742;2023-10-13T05:20:10;5.18;;;3.40;;
80229;SDS011;69540;42.136;24.742;2023-10-13T05:22:54;4.50;;;3.20;;
80229;SDS011;69540;42.136;24.742;2023-10-13T05:25:38;6.43;;;3.55;;
80229;SDS011;69540;42.136;24.742;2023-10-13T05:28:22;4.32;;;3.30;;
80229;SDS011;69540;42.136;24.742;2023-10-13T05:31:07;6.13;;;3.53;;
80229;SDS011;69540;42.136;24.742;2023-10-13T05:33:51;5.55;;;3.20;;
80229;SDS011;69540;42.136;24.742;2023-10-13T05:36:36;4.22;;;2.83;;
80229;SDS011;69540;42.136;24.742;2023-10-13T05:39:20;4.03;;;3.10;;
80229;SDS011;69540;42.136;24.742;2023-10-13T05:42:07;6.78;;;3.50;;
80229;SDS011;69540;42.136;24.742;2023-10-13T05:44:51;4.93;;;3.15;;
80229;SDS011;69540;42.136;24.742;2023-10-13T05:47:35;4.78;;;3.65;;
80229;SDS011;69540;42.136;24.742;2023-10-13T05:50:04;3.45;;;3.03;;
80229;SDS011;69540;42.136;24.742;2023-10-13T05:52:38;3.50;;;3.10;;
80229;SDS011;69540;42.136;24.742;2023-10-13T05:55:22;5.78;;;3.17;;
80229;SDS011;69540;42.136;24.742;2023-10-13T05:58:12;4.55;;;3.00;;
80229;SDS011;69540;42.136;24.742;2023-10-13T06:00:56;5.07;;;3.28;;
80229;SDS011;69540;42.136;24.742;2023-10-13T06:03:41;3.97;;;3.00;;
80229;SDS011;69540;42.136;24.742;2023-10-13T06:06:25;3.58;;;3.10;;
80229;SDS011;69540;42.136;24.742;2023-10-13T06:09:09;5.38;;;2.90;;
80229;SDS011;69540;42.136;24.742;2023-10-13T06:11:53;4.55;;;3.00;;
80229;SDS011;69540;42.136;24.742;2023-10-13T06:14:38;3.13;;;2.90;;
80229;SDS011;69540;42.136;24.742;2023-10-13T06:17:22;5.40;;;3.05;;
80229;SDS011;69540;42.136;24.742;2023-10-13T06:20:06;3.20;;;2.90;;
80229;SDS011;69540;42.136;24.742;2023-10-13T06:22:51;10.27;;;3.22;;
80229;SDS011;69540;42.136;24.742;2023-10-13T06:25:35;4.22;;;3.17;;
80229;SDS011;69540;42.136;24.742;2023-10-13T06:28:19;3.58;;;3.10;;
80229;SDS011;69540;42.136;24.742;2023-10-13T06:31:04;3.28;;;2.90;;
80229;SDS011;69540;42.136;24.742;2023-10-13T06:33:33;6.85;;;3.10;;
80229;SDS011;69540;42.136;24.742;2023-10-13T06:36:02;3.13;;;2.78;;
80229;SDS011;69540;42.136;24.742;2023-10-13T06:38:34;4.40;;;2.60;;
80229;SDS011;69540;42.136;24.742;2023-10-13T06:41:06;6.22;;;3.28;;
80229;SDS011;69540;42.136;24.742;2023-10-13T06:43:33;6.13;;;3.00;;
80229;SDS011;69540;42.136;24.742;2023-10-13T06:48:39;7.13;;;3.30;;
80229;SDS011;69540;42.136;24.742;2023-10-13T06:51:06;3.90;;;3.00;;
80229;SDS011;69540;42.136;24.742;2023-10-13T06:53:46;3.85;;;2.90;;
80229;SDS011;69540;42.136;24.742;2023-10-13T06:56:13;3.65;;;2.80;;
80229;SDS011;69540;42.136;24.742;2023-10-13T06:58:52;6.00;;;2.92;;
80229;SDS011;69540;42.136;24.742;2023-10-13T07:01:24;5.10;;;3.20;;
80229;SDS011;69540;42.136;24.742;2023-10-13T07:03:53;3.50;;;3.00;;
80229;SDS011;69540;42.136;24.742;2023-10-13T07:06:22;3.88;;;2.90;;
80229;SDS011;69540;42.136;24.742;2023-10-13T07:08:48;5.85;;;3.38;;
80229;SDS011;69540;42.136;24.742;2023-10-13T07:11:27;5.00;;;2.80;;
80229;SDS011;69540;42.136;24.742;2023-10-13T07:14:02;6.90;;;3.10;;
80229;SDS011;69540;42.136;24.742;2023-10-13T07:19:26;4.32;;;2.60;;
80229;SDS011;69540;42.136;24.742;2023-10-13T07:21:56;4.80;;;3.08;;
80229;SDS011;69540;42.136;24.742;2023-10-13T07:24:42;4.75;;;3.50;;
80229;SDS011;69540;42.136;24.742;2023-10-13T07:27:08;3.85;;;3.00;;
80229;SDS011;69540;42.136;24.742;2023-10-13T07:29:34;3.80;;;2.80;;
80229;SDS011;69540;42.136;24.742;2023-10-13T07:32:01;2.92;;;2.63;;
80229;SDS011;69540;42.136;24.742;2023-10-13T07:34:37;5.53;;;3.17;;
80229;SDS011;69540;42.136;24.742;2023-10-13T07:37:04;3.95;;;3.03;;
80229;SDS011;69540;42.136;24.742;2023-10-13T07:39:37;4.22;;;2.95;;
80229;SDS011;69540;42.136;24.742;2023-10-13T07:42:05;3.80;;;2.90;;
80229;SDS011;69540;42.136;24.742;2023-10-13T07:44:33;3.65;;;3.03;;
80229;SDS011;69540;42.136;24.742;2023-10-13T07:47:00;3.72;;;3.10;;
80229;SDS011;69540;42.136;24.742;2023-10-13T07:49:36;3.63;;;2.80;;
80229;SDS011;69540;42.136;24.742;2023-10-13T07:52:04;3.97;;;2.70;;
80229;SDS011;69540;42.136;24.742;2023-10-13T07:54:47;4.85;;;2.95;;
80229;SDS011;69540;42.136;24.742;2023-10-13T07:57:48;3.28;;;2.83;;
80229;SDS011;69540;42.136;24.742;2023-10-13T08:00:24;3.90;;;2.70;;
80229;SDS011;69540;42.136;24.742;2023-10-13T08:02:56;2.85;;;2.65;;
80229;SDS011;69540;42.136;24.742;2023-10-13T08:05:34;3.42;;;2.70;;
80229;SDS011;69540;42.136;24.742;2023-10-13T08:08:22;4.28;;;2.70;;
80229;SDS011;69540;42.136;24.742;2023-10-13T08:10:51;6.32;;;3.05;;
80229;SDS011;69540;42.136;24.742;2023-10-13T08:13:21;6.13;;;2.75;;
80229;SDS011;69540;42.136;24.742;2023-10-13T08:15:47;3.85;;;2.85;;
80229;SDS011;69540;42.136;24.742;2023-10-13T08:18:16;5.18;;;2.95;;
80229;SDS011;69540;42.136;24.742;2023-10-13T08:20:55;6.25;;;3.15;;
80229;SDS011;69540;42.136;24.742;2023-10-13T08:23:41;7.25;;;2.60;;
80229;SDS011;69540;42.136;24.742;2023-10-13T08:26:19;4.72;;;3.00;;
80229;SDS011;69540;42.136;24.742;2023-10-13T08:29:17;5.55;;;2.95;;
80229;SDS011;69540;42.136;24.742;2023-10-13T08:31:50;3.40;;;3.10;;
80229;SDS011;69540;42.136;24.742;2023-10-13T08:34:28;4.40;;;3.30;;
80229;SDS011;69540;42.136;24.742;2023-10-13T08:37:03;4.25;;;3.00;;
80229;SDS011;69540;42.136;24.742;2023-10-13T08:39:50;3.78;;;3.00;;
80229;SDS011;69540;42.136;24.742;2023-10-13T08:42:32;4.32;;;3.13;;
80229;SDS011;69540;42.136;24.742;2023-10-13T08:45:09;5.03;;;3.03;;
80229;SDS011;69540;42.136;24.742;2023-10-13T08:47:47;4.70;;;3.20;;
80229;SDS011;69540;42.136;24.742;2023-10-13T08:50:20;5.60;;;3.28;;
80229;SDS011;69540;42.136;24.742;2023-10-13T08:53:12;4.20;;;3.08;;
80229;SDS011;69540;42.136;24.742;2023-10-13T08:56:06;4.57;;;2.97;;
80229;SDS011;69540;42.136;24.742;2023-10-13T08:58:39;4.40;;;3.00;;
80229;SDS011;69540;42.136;24.742;2023-10-13T09:04:06;6.50;;;3.00;;
80229;SDS011;69540;42.136;24.742;2023-10-13T09:06:52;4.72;;;2.90;;
80229;SDS011;69540;42.136;24.742;2023-10-13T09:09:26;4.97;;;2.88;;
80229;SDS011;69540;42.136;24.742;2023-10-13T09:11:55;5.50;;;3.10;;
80229;SDS011;69540;42.136;24.742;2023-10-13T09:14:37;4.13;;;2.90;;
80229;SDS011;69540;42.136;24.742;2023-10-13T09:17:08;4.50;;;2.65;;
80229;SDS011;69540;42.136;24.742;2023-10-13T09:19:43;5.18;;;2.92;;
80229;SDS011;69540;42.136;24.742;2023-10-13T09:22:22;5.15;;;2.80;;
80229;SDS011;69540;42.136;24.742;2023-10-13T09:24:57;3.05;;;2.75;;
80229;SDS011;69540;42.136;24.742;2023-10-13T09:27:27;3.42;;;2.90;;
80229;SDS011;69540;42.136;24.742;2023-10-13T09:29:55;4.90;;;2.97;;
80229;SDS011;69540;42.136;24.742;2023-10-13T09:32:34;5.65;;;2.75;;
80229;SDS011;69540;42.136;24.742;2023-10-13T09:35:11;4.07;;;3.15;;
80229;SDS011;69540;42.136;24.742;2023-10-13T09:37:42;4.80;;;3.00;;
80229;SDS011;69540;42.136;24.742;2023-10-13T09:40:11;3.22;;;2.75;;
80229;SDS011;69540;42.136;24.742;2023-10-13T09:42:52;5.88;;;2.88;;
80229;SDS011;69540;42.136;24.742;2023-10-13T09:45:22;3.13;;;2.83;;
80229;SDS011;69540;42.136;24.742;2023-10-13T09:47:52;5.70;;;3.05;;
80229;SDS011;69540;42.136;24.742;2023-10-13T09:50:31;4.07;;;2.97;;
80229;SDS011;69540;42.136;24.742;2023-10-13T09:53:02;4.43;;;2.90;;
80229;SDS011;69540;42.136;24.742;2023-10-13T09:55:38;4.03;;;2.92;;
80229;SDS011;69540;42.136;24.742;2023-10-13T09:58:10;4.05;;;2.85;;
80229;SDS011;69540;42.136;24.742;2023-10-13T10:01:00;4.05;;;2.78;;
80229;SDS011;69540;42.136;24.742;2023-10-13T10:03:43;3.22;;;2.80;;
80229;SDS011;69540;42.136;24.742;2023-10-13T10:06:21;4.82;;;3.00;;
80229;SDS011;69540;42.136;24.742;2023-10-13T10:09:04;4.07;;;2.75;;
80229;SDS011;69540;42.136;24.742;2023-10-13T10:17:23;3.63;;;2.80;;
80229;SDS011;69540;42.136;24.742;2023-10-13T10:19:54;4.65;;;2.80;;
80229;SDS011;69540;42.136;24.742;2023-10-13T10:22:28;5.47;;;3.00;;
80229;SDS011;69540;42.136;24.742;2023-10-13T10:25:05;5.05;;;2.70;;
80229;SDS011;69540;42.136;24.742;2023-10-13T10:28:00;4.20;;;2.63;;
80229;SDS011;69540;42.136;24.742;2023-10-13T10:30:31;3.42;;;2.95;;
80229;SDS011;69540;42.136;24.742;2023-10-13T10:32:59;4.00;;;2.78;;
80229;SDS011;69540;42.136;24.742;2023-10-13T10:35:26;4.55;;;3.17;;
80229;SDS011;69540;42.136;24.742;2023-10-13T10:37:58;3.85;;;2.90;;
80229;SDS011;69540;42.136;24.742;2023-10-13T10:41:01;3.75;;;2.55;;
80229;SDS011;69540;42.136;24.742;2023-10-13T10:48:43;3.38;;;2.63;;
80229;SDS011;69540;42.136;24.742;2023-10-13T10:51:09;4.97;;;2.92;;
80229;SDS011;69540;42.136;24.742;2023-10-13T10:53:39;3.97;;;2.90;;
80229;SDS011;69540;42.136;24.742;2023-10-13T10:56:12;4.55;;;2.80;;
80229;SDS011;69540;42.136;24.742;2023-10-13T10:58:48;5.43;;;3.05;;
80229;SDS011;69540;42.136;24.742;2023-10-13T11:01:19;4.15;;;2.78;;
80229;SDS011;69540;42.136;24.742;2023-10-13T11:03:56;3.72;;;2.60;;
80229;SDS011;69540;42.136;24.742;2023-10-13T11:06:23;3.58;;;2.78;;
80229;SDS011;69540;42.136;24.742;2023-10-13T11:09:04;3.88;;;2.60;;
80229;SDS011;69540;42.136;24.742;2023-10-13T11:11:43;5.35;;;2.60;;
80229;SDS011;69540;42.136;24.742;2023-10-13T11:14:19;4.90;;;2.70;;
80229;SDS011;69540;42.136;24.742;2023-10-13T11:16:48;5.78;;;2.90;;
80229;SDS011;69540;42.136;24.742;2023-10-13T11:19:39;4.75;;;2.63;;
80229;SDS011;69540;42.136;24.742;2023-10-13T11:22:19;3.03;;;2.80;;
80229;SDS011;69540;42.136;24.742;2023-10-13T11:24:57;3.75;;;2.53;;
80229;SDS011;69540;42.136;24.742;2023-10-13T11:27:33;4.18;;;2.70;;
80229;SDS011;69540;42.136;24.742;2023-10-13T11:30:13;3.35;;;2.65;;
80229;SDS011;69540;42.136;24.742;2023-10-13T11:33:02;4.82;;;3.10;;
80229;SDS011;69540;42.136;24.742;2023-10-13T11:35:34;2.92;;;2.58;;
80229;SDS011;69540;42.136;24.742;2023-10-13T11:38:19;3.28;;;2.80;;
80229;SDS011;69540;42.136;24.742;2023-10-13T11:40:58;4.60;;;2.40;;
80229;SDS011;69540;42.136;24.742;2023-10-13T11:43:31;3.60;;;2.60;;
80229;SDS011;69540;42.136;24.742;2023-10-13T11:46:07;5.07;;;2.70;;
80229;SDS011;69540;42.136;24.742;2023-10-13T11:48:33;3.35;;;2.78;;
80229;SDS011;69540;42.136;24.742;2023-10-13T11:51:01;3.58;;;2.67;;
80229;SDS011;69540;42.136;24.742;2023-10-13T11:53:33;2.67;;;2.40;;
80229;SDS011;69540;42.136;24.742;2023-10-13T11:56:00;4.93;;;2.50;;
80229;SDS011;69540;42.136;24.742;2023-10-13T11:58:35;5.00;;;2.72;;
80229;SDS011;69540;42.136;24.742;2023-10-13T12:01:02;2.80;;;2.50;;
80229;SDS011;69540;42.136;24.742;2023-10-13T12:03:40;3.60;;;2.70;;
80229;SDS011;69540;42.136;24.742;2023-10-13T12:06:25;4.38;;;2.90;;
80229;SDS011;69540;42.136;24.742;2023-10-13T12:09:04;2.70;;;2.50;;
80229;SDS011;69540;42.136;24.742;2023-10-13T12:11:43;3.17;;;2.60;;
80229;SDS011;69540;42.136;24.742;2023-10-13T12:14:13;4.07;;;2.83;;
80229;SDS011;69540;42.136;24.742;2023-10-13T12:16:44;4.00;;;3.00;;
80229;SDS011;69540;42.136;24.742;2023-10-13T12:19:16;2.92;;;2.60;;
80229;SDS011;69540;42.136;24.742;2023-10-13T12:21:48;4.63;;;2.92;;
80229;SDS011;69540;42.136;24.742;2023-10-13T12:24:23;4.60;;;2.80;;
80229;SDS011;69540;42.136;24.742;2023-10-13T12:27:16;3.50;;;2.72;;
80229;SDS011;69540;42.136;24.742;2023-10-13T12:29:45;4.82;;;2.85;;
80229;SDS011;69540;42.136;24.742;2023-10-13T12:32:16;3.90;;;3.15;;
80229;SDS011;69540;42.136;24.742;2023-10-13T12:34:50;7.13;;;2.97;;
80229;SDS011;69540;42.136;24.742;2023-10-13T12:37:42;3.88;;;2.90;;
80229;SDS011;69540;42.136;24.742;2023-10-13T12:40:08;3.33;;;2.65;;
80229;SDS011;69540;42.136;24.742;2023-10-13T12:42:53;3.42;;;2.72;;
80229;SDS011;69540;42.136;24.742;2023-10-13T12:45:38;5.63;;;3.13;;
80229;SDS011;69540;42.136;24.742;2023-10-13T12:48:23;4.50;;;3.00;;
80229;SDS011;69540;42.136;24.742;2023-10-13T12:51:07;4.65;;;2.80;;
80229;SDS011;69540;42.136;24.742;2023-10-13T12:53:54;4.40;;;2.55;;
80229;SDS011;69540;42.136;24.742;2023-10-13T12:56:29;3.33;;;2.85;;
80229;SDS011;69540;42.136;24.742;2023-10-13T12:58:55;6.43;;;2.92;;
80229;SDS011;69540;42.136;24.742;2023-10-13T13:01:22;3.63;;;2.95;;
80229;SDS011;69540;42.136;24.742;2023-10-13T13:03:50;3.58;;;2.95;;
80229;SDS011;69540;42.136;24.742;2023-10-13T13:06:22;3.47;;;3.10;;
80229;SDS011;69540;42.136;24.742;2023-10-13T13:08:55;4.25;;;2.83;;
80229;SDS011;69540;42.136;24.742;2023-10-13T13:11:25;5.85;;;3.08;;
80229;SDS011;69540;42.136;24.742;2023-10-13T13:13:53;4.38;;;2.88;;
80229;SDS011;69540;42.136;24.742;2023-10-13T13:16:19;4.20;;;3.00;;
80229;SDS011;69540;42.136;24.742;2023-10-13T13:18:51;4.55;;;3.20;;
80229;SDS011;69540;42.136;24.742;2023-10-13T13:21:20;6.07;;;3.22;;
80229;SDS011;69540;42.136;24.742;2023-10-13T13:23:49;4.90;;;3.25;;
80229;SDS011;69540;42.136;24.742;2023-10-13T13:26:21;5.78;;;3.40;;
80229;SDS011;69540;42.136;24.742;2023-10-13T13:28:49;8.88;;;3.30;;
80229;SDS011;69540;42.136;24.742;2023-10-13T13:31:18;4.28;;;3.20;;
80229;SDS011;69540;42.136;24.742;2023-10-13T13:33:51;4.13;;;3.38;;
80229;SDS011;69540;42.136;24.742;2023-10-13T13:36:17;4.90;;;3.08;;
80229;SDS011;69540;42.136;24.742;2023-10-13T13:38:44;6.38;;;3.10;;
80229;SDS011;69540;42.136;24.742;2023-10-13T13:41:19;4.50;;;3.00;;
80229;SDS011;69540;42.136;24.742;2023-10-13T13:43:48;6.63;;;2.95;;
80229;SDS011;69540;42.136;24.742;2023-10-13T13:46:18;4.50;;;3.15;;
80229;SDS011;69540;42.136;24.742;2023-10-13T13:48:52;6.68;;;3.03;;
80229;SDS011;69540;42.136;24.742;2023-10-13T13:51:29;5.05;;;2.83;;
80229;SDS011;69540;42.136;24.742;2023-10-13T13:53:57;4.10;;;3.22;;
80229;SDS011;69540;42.136;24.742;2023-10-13T13:56:24;5.78;;;3.25;;
80229;SDS011;69540;42.136;24.742;2023-10-13T13:58:51;5.55;;;3.00;;
80229;SDS011;69540;42.136;24.742;2023-10-13T14:01:18;4.55;;;2.95;;
80229;SDS011;69540;42.136;24.742;2023-10-13T14:03:46;3.83;;;2.95;;
80229;SDS011;69540;42.136;24.742;2023-10-13T14:06:15;8.20;;;3.15;;
80229;SDS011;69540;42.136;24.742;2023-10-13T14:08:46;5.85;;;3.08;;
80229;SDS011;69540;42.136;24.742;2023-10-13T14:11:24;4.15;;;2.92;;
80229;SDS011;69540;42.136;24.742;2023-10-13T14:14:04;6.63;;;3.60;;
80229;SDS011;69540;42.136;24.742;2023-10-13T14:16:36;7.30;;;3.10;;
80229;SDS011;69540;42.136;24.742;2023-10-13T14:19:03;8.40;;;3.13;;
80229;SDS011;69540;42.136;24.742;2023-10-13T14:21:33;6.65;;;3.15;;
80229;SDS011;69540;42.136;24.742;2023-10-13T14:24:00;4.78;;;2.95;;
80229;SDS011;69540;42.136;24.742;2023-10-13T14:26:27;6.80;;;3.17;;
80229;SDS011;69540;42.136;24.742;2023-10-13T14:28:53;4.47;;;3.08;;
80229;SDS011;69540;42.136;24.742;2023-10-13T14:31:29;6.07;;;3.17;;
80229;SDS011;69540;42.136;24.742;2023-10-13T14:33:56;6.45;;;3.30;;
80229;SDS011;69540;42.136;24.742;2023-10-13T14:36:22;3.72;;;2.80;;
80229;SDS011;69540;42.136;24.742;2023-10-13T14:38:49;4.95;;;3.00;;
80229;SDS011;69540;42.136;24.742;2023-10-13T14:41:18;3.55;;;3.00;;
80229;SDS011;69540;42.136;24.742;2023-10-13T14:43:44;5.18;;;3.10;;
80229;SDS011;69540;42.136;24.742;2023-10-13T14:46:13;4.60;;;3.15;;
80229;SDS011;69540;42.136;24.742;2023-10-13T14:48:40;6.65;;;3.30;;
80229;SDS011;69540;42.136;24.742;2023-10-13T14:51:10;3.53;;;2.90;;
80229;SDS011;69540;42.136;24.742;2023-10-13T14:53:41;4.60;;;3.03;;
80229;SDS011;69540;42.136;24.742;2023-10-13T14:56:11;5.38;;;3.28;;
80229;SDS011;69540;42.136;24.742;2023-10-13T14:58:37;6.75;;;2.97;;
80229;SDS011;69540;42.136;24.742;2023-10-13T15:01:13;4.13;;;3.10;;
80229;SDS011;69540;42.136;24.742;2023-10-13T15:03:47;3.97;;;3.25;;
80229;SDS011;69540;42.136;24.742;2023-10-13T15:06:17;5.20;;;3.88;;
80229;SDS011;69540;42.136;24.742;2023-10-13T15:08:45;4.30;;;2.90;;
80229;SDS011;69540;42.136;24.742;2023-10-13T15:11:11;5.00;;;3.15;;
80229;SDS011;69540;42.136;24.742;2023-10-13T15:13:38;5.30;;;3.38;;
80229;SDS011;69540;42.136;24.742;2023-10-13T15:16:15;5.60;;;3.17;;
80229;SDS011;69540;42.136;24.742;2023-10-13T15:18:42;5.05;;;3.10;;
80229;SDS011;69540;42.136;24.742;2023-10-13T15:21:18;6.60;;;3.17;;
80229;SDS011;69540;42.136;24.742;2023-10-13T15:23:49;5.82;;;3.38;;
80229;SDS011;69540;42.136;24.742;2023-10-13T15:26:17;4.95;;;3.40;;
80229;SDS011;69540;42.136;24.742;2023-10-13T15:28:43;5.03;;;3.05;;
80229;SDS011;69540;42.136;24.742;2023-10-13T15:31:17;5.17;;;3.20;;
80229;SDS011;69540;42.136;24.742;2023-10-13T15:33:58;4.47;;;3.40;;
80229;SDS011;69540;42.136;24.742;2023-10-13T15:36:26;4.03;;;2.85;;
80229;SDS011;69540;42.136;24.742;2023-10-13T15:38:52;3.88;;;3.13;;
80229;SDS011;69540;42.136;24.742;2023-10-13T15:41:25;3.58;;;2.92;;